Time;durP1;ratioP1;P1;durP2;ratioP2;P2;SDS_P1;SDS_P2;PMS_P1;PMS_P2;Temp;Humidity;BMP_temperature;BMP_pressure;BME280_temperature;BME280_humidity;BME280_pressure;Samples;Min_cycle;Max_cycle;Signal;HPM_P1;HPM_P2
2023/05/20 00:00:52;;;;;;;5.03;2.80;;;12.80;1.00;;;;;;5033168;28;20018;-66
2023/05/20 00:03:19;;;;;;;4.57;2.88;;;12.80;99.90;;;;;;5032900;28;20078;-66
2023/05/20 00:05:45;;;;;;;6.90;3.08;;;12.70;99.90;;;;;;5032716;28;20028;-66
2023/05/20 00:08:11;;;;;;;5.90;3.38;;;12.60;99.90;;;;;;5032891;28;20034;-66
2023/05/20 00:10:37;;;;;;;4.45;2.80;;;12.60;99.90;;;;;;5032948;28;20026;-66
2023/05/20 00:13:03;;;;;;;5.50;3.00;;;12.50;99.90;;;;;;5031650;28;20083;-66
2023/05/20 00:15:29;;;;;;;4.88;2.95;;;12.60;99.90;;;;;;5032987;28;20474;-66
2023/05/20 00:17:55;;;;;;;6.20;3.63;;;12.60;99.90;;;;;;5033012;28;20463;-66
2023/05/20 00:20:21;;;;;;;6.22;2.90;;;12.60;99.90;;;;;;5032805;28;20479;-66
2023/05/20 00:22:46;;;;;;;5.78;3.05;;;12.60;99.90;;;;;;5032801;28;20104;-66
2023/05/20 00:25:13;;;;;;;6.22;2.88;;;12.50;99.90;;;;;;5032749;28;20029;-66
2023/05/20 00:27:40;;;;;;;6.35;3.03;;;12.50;99.90;;;;;;5032738;28;20028;-66
2023/05/20 00:30:06;;;;;;;3.78;2.90;;;12.50;99.90;;;;;;5032931;28;20112;-66
2023/05/20 00:32:32;;;;;;;4.25;3.00;;;12.50;99.90;;;;;;5031372;28;20499;-66
2023/05/20 00:34:59;;;;;;;4.18;3.00;;;12.40;1.00;;;;;;5032691;28;20479;-66
2023/05/20 00:37:25;;;;;;;5.32;2.85;;;12.30;98.40;;;;;;5032873;28;20462;-66
2023/05/20 00:39:51;;;;;;;7.60;3.30;;;12.20;99.90;;;;;;5035115;28;20074;-66
2023/05/20 00:42:25;;;;;;;3.70;2.70;;;12.10;1.00;;;;;;5035317;28;20025;-66
2023/05/20 00:44:52;;;;;;;3.65;2.92;;;12.00;99.90;;;;;;5036082;28;20036;-66
2023/05/20 00:47:19;;;;;;;7.55;3.13;;;12.00;1.00;;;;;;5036139;28;20040;-66
2023/05/20 00:49:46;;;;;;;6.53;3.22;;;11.90;1.00;;;;;;5034986;28;20025;-66
2023/05/20 00:52:13;;;;;;;6.07;3.40;;;11.90;1.00;;;;;;5035974;28;20540;-66
2023/05/20 00:54:39;;;;;;;5.28;3.58;;;11.90;1.00;;;;;;5034861;28;20025;-66
2023/05/20 00:57:06;;;;;;;5.00;2.75;;;11.90;1.00;;;;;;5036174;28;20381;-66
2023/05/20 00:59:34;;;;;;;4.95;3.65;;;11.90;1.00;;;;;;5034938;28;20442;-66
2023/05/20 01:01:59;;;;;;;3.33;2.88;;;11.80;16.30;;;;;;5034827;28;20091;-66
2023/05/20 01:04:25;;;;;;;5.35;3.40;;;11.80;51.60;;;;;;5034579;28;20021;-66
2023/05/20 01:06:51;;;;;;;7.68;3.17;;;11.70;1.00;;;;;;5035735;28;20029;-66
2023/05/20 01:09:17;;;;;;;6.30;3.17;;;11.70;62.10;;;;;;5035934;28;20030;-66
2023/05/20 01:11:49;;;;;;;7.13;3.15;;;11.80;32.00;;;;;;5035388;28;20494;-66
2023/05/20 01:14:17;;;;;;;5.68;3.33;;;11.70;55.70;;;;;;5035643;28;20030;-66
2023/05/20 01:16:46;;;;;;;3.80;3.33;;;11.70;39.20;;;;;;5034594;28;20025;-66
2023/05/20 01:19:26;;;;;;;5.95;3.03;;;11.70;29.20;;;;;;5035750;28;20101;-66
2023/05/20 01:21:52;;;;;;;8.85;3.58;;;11.60;93.30;;;;;;5034255;28;20025;-66
2023/05/20 01:24:18;;;;;;;6.07;3.30;;;11.60;99.90;;;;;;5035259;28;20057;-66
2023/05/20 01:26:47;;;;;;;6.75;2.88;;;11.60;99.90;;;;;;5035403;28;20111;-66
2023/05/20 01:29:17;;;;;;;6.38;3.22;;;11.50;99.90;;;;;;5034185;28;20021;-66
2023/05/20 01:31:43;;;;;;;4.90;2.85;;;11.50;99.90;;;;;;5035172;28;20490;-66
2023/05/20 01:34:09;;;;;;;5.43;2.97;;;11.60;99.90;;;;;;5035153;28;20435;-66
2023/05/20 01:36:36;;;;;;;5.00;3.17;;;11.60;99.90;;;;;;5035484;28;20430;-66
2023/05/20 01:39:02;;;;;;;4.75;3.10;;;11.70;99.90;;;;;;5035218;28;20032;-66
2023/05/20 01:41:28;;;;;;;4.07;2.72;;;11.70;97.70;;;;;;5035387;28;20113;-66
2023/05/20 01:43:55;;;;;;;5.00;3.50;;;11.80;1.00;;;;;;5035026;28;20029;-66
2023/05/20 01:46:20;;;;;;;5.70;2.80;;;11.80;1.00;;;;;;5035019;28;20060;-66
2023/05/20 01:48:46;;;;;;;5.07;3.17;;;11.80;1.00;;;;;;5035187;28;20496;-66
2023/05/20 01:51:11;;;;;;;5.78;2.88;;;11.80;1.00;;;;;;5034898;28;20029;-66
2023/05/20 01:53:37;;;;;;;5.63;3.35;;;11.80;1.00;;;;;;5034898;28;20026;-66
2023/05/20 01:56:04;;;;;;;5.47;3.40;;;11.80;1.00;;;;;;5034851;28;20026;-66
2023/05/20 01:58:30;;;;;;;6.40;3.20;;;11.80;1.00;;;;;;5034873;28;20027;-66
2023/05/20 02:00:55;;;;;;;4.97;3.20;;;11.70;1.00;;;;;;5034949;28;20021;-66
2023/05/20 02:03:21;;;;;;;5.55;3.33;;;11.70;2.80;;;;;;5034720;28;20121;-66
2023/05/20 02:05:46;;;;;;;4.72;3.28;;;11.70;42.30;;;;;;5034663;28;20554;-66
2023/05/20 02:08:12;;;;;;;6.85;3.58;;;11.60;28.20;;;;;;5034624;28;20395;-66
2023/05/20 02:10:37;;;;;;;4.03;3.15;;;11.60;96.60;;;;;;5034348;28;20022;-66
2023/05/20 02:13:03;;;;;;;5.80;3.35;;;11.60;99.90;;;;;;5034669;28;20036;-66
2023/05/20 02:15:28;;;;;;;5.63;3.30;;;11.50;99.90;;;;;;5034649;28;20026;-66
2023/05/20 02:17:56;;;;;;;8.10;3.58;;;11.40;99.90;;;;;;5034368;28;20033;-66
2023/05/20 02:20:22;;;;;;;5.18;3.45;;;11.40;99.90;;;;;;5034598;28;20109;-66
2023/05/20 02:22:47;;;;;;;5.55;3.38;;;11.30;99.90;;;;;;5034512;28;20437;-66
2023/05/20 02:25:13;;;;;;;5.65;3.63;;;11.30;99.90;;;;;;5034304;28;20033;-66
2023/05/20 02:27:39;;;;;;;7.45;3.22;;;11.20;99.90;;;;;;5033307;28;20108;-66
2023/05/20 02:30:06;;;;;;;10.63;3.78;;;11.10;99.90;;;;;;5034435;28;20033;-66
2023/05/20 02:32:32;;;;;;;5.35;3.42;;;11.20;99.90;;;;;;5033981;28;20045;-66
2023/05/20 02:34:58;;;;;;;5.18;3.10;;;11.20;99.90;;;;;;5034168;28;20486;-66
2023/05/20 02:37:23;;;;;;;6.20;3.47;;;11.30;99.90;;;;;;5034061;28;20025;-66
2023/05/20 02:39:49;;;;;;;8.57;3.25;;;11.30;99.90;;;;;;5034246;28;20474;-66
2023/05/20 02:42:14;;;;;;;6.20;3.28;;;11.30;99.90;;;;;;5034201;28;20029;-66
2023/05/20 02:44:40;;;;;;;5.53;3.60;;;11.30;99.90;;;;;;5033953;28;20534;-66
2023/05/20 02:47:05;;;;;;;5.82;3.47;;;11.20;99.90;;;;;;5033917;28;20030;-66
2023/05/20 02:49:31;;;;;;;8.00;3.60;;;11.20;99.90;;;;;;5034013;28;20071;-66
2023/05/20 02:51:56;;;;;;;5.03;3.47;;;11.20;99.90;;;;;;5033695;28;20513;-66
2023/05/20 02:54:22;;;;;;;4.53;3.38;;;11.20;99.90;;;;;;5033717;28;20021;-66
2023/05/20 02:56:47;;;;;;;6.78;3.25;;;11.20;99.90;;;;;;5033700;28;20025;-66
2023/05/20 02:59:13;;;;;;;7.35;3.20;;;11.20;99.90;;;;;;5033514;28;20022;-66
2023/05/20 03:01:39;;;;;;;7.65;3.85;;;11.20;99.90;;;;;;5033493;28;20395;-66
2023/05/20 03:04:04;;;;;;;6.03;3.63;;;11.10;99.90;;;;;;5033662;28;20026;-66
2023/05/20 03:06:30;;;;;;;8.30;3.60;;;11.10;99.90;;;;;;5032478;28;20026;-66
2023/05/20 03:08:57;;;;;;;4.55;3.50;;;;;;;;;;5033504;28;20441;-66
2023/05/20 03:11:22;;;;;;;7.80;3.80;;;11.00;1.00;;;;;;5033637;28;20021;-66
2023/05/20 03:13:48;;;;;;;5.90;3.72;;;;;;;;;;5033480;28;20037;-66
2023/05/20 03:16:15;;;;;;;6.38;3.72;;;;;;;;;;5033406;28;20029;-66
2023/05/20 03:18:41;;;;;;;6.03;4.43;;;;;;;;;;5033433;28;20017;-66
2023/05/20 03:21:07;;;;;;;7.15;3.85;;;;;;;;;;5033247;28;20116;-66
2023/05/20 03:23:34;;;;;;;4.63;3.90;;;;;;;;;;5033329;28;20036;-66
2023/05/20 03:26:00;;;;;;;5.40;3.60;;;;;;;;;;5033585;28;20470;-66
2023/05/20 03:28:26;;;;;;;6.65;3.55;;;;;;;;;;5033241;28;20140;-66
2023/05/20 03:30:52;;;;;;;6.22;3.60;;;;;;;;;;5033098;28;20065;-66
2023/05/20 03:33:18;;;;;;;6.82;3.60;;;;;;;;;;5033171;28;20025;-66
2023/05/20 03:35:44;;;;;;;6.63;4.07;;;;;;;;;;5033198;28;20395;-66
2023/05/20 03:38:10;;;;;;;8.48;4.03;;;;;;;;;;5033177;28;20025;-66
2023/05/20 03:40:36;;;;;;;7.22;3.75;;;;;;;;;;5033088;28;20080;-66
2023/05/20 03:43:02;;;;;;;6.65;4.28;;;;;;;;;;5033393;28;20077;-66
2023/05/20 03:45:28;;;;;;;6.82;3.70;;;;;;;;;;5033223;28;20030;-65
2023/05/20 03:47:54;;;;;;;8.10;4.13;;;;;;;;;;5033305;28;20041;-66
2023/05/20 03:50:20;;;;;;;8.23;3.67;;;;;;;;;;5033097;28;20025;-66
2023/05/20 03:52:46;;;;;;;7.03;4.10;;;;;;;;;;5032980;28;20030;-66
2023/05/20 03:55:12;;;;;;;7.38;3.90;;;;;;;;;;5033288;28;20387;-65
2023/05/20 03:57:38;;;;;;;7.97;3.78;;;;;;;;;;5033250;28;20026;-65
2023/05/20 04:00:10;;;;;;;8.07;4.32;;;;;;;;;;5032875;28;20028;-65
2023/05/20 04:02:37;;;;;;;5.43;3.67;;;;;;;;;;5033206;28;20044;-66
2023/05/20 04:05:03;;;;;;;5.38;3.75;;;;;;;;;;5033147;28;20029;-66
2023/05/20 04:07:29;;;;;;;5.03;3.70;;;;;;;;;;5032979;28;20498;-66
2023/05/20 04:09:55;;;;;;;6.88;4.30;;;;;;;;;;5033168;28;20025;-66
2023/05/20 04:12:21;;;;;;;6.90;3.88;;;11.90;99.90;;;;;;5032966;28;20034;-66
2023/05/20 04:14:48;;;;;;;6.55;4.60;;;11.80;99.90;;;;;;5035441;28;20025;-66
2023/05/20 04:17:14;;;;;;;6.72;4.03;;;11.80;99.90;;;;;;5036693;28;20442;-66
2023/05/20 04:19:40;;;;;;;7.45;3.92;;;11.70;99.90;;;;;;5036881;28;20021;-66
2023/05/20 04:22:05;;;;;;;5.32;4.07;;;11.70;99.90;;;;;;5036713;28;20488;-65
2023/05/20 04:24:31;;;;;;;5.55;3.83;;;11.70;99.90;;;;;;5036717;28;20037;-65
2023/05/20 04:26:56;;;;;;;5.93;4.20;;;11.80;99.90;;;;;;5036386;28;20076;-65
2023/05/20 04:29:22;;;;;;;7.93;3.88;;;11.90;99.90;;;;;;5036708;28;20034;-65
2023/05/20 04:31:48;;;;;;;6.38;4.13;;;12.00;99.90;;;;;;5036132;28;20060;-66
2023/05/20 04:34:14;;;;;;;6.65;3.70;;;12.30;99.90;;;;;;5036415;28;20021;-66
2023/05/20 04:36:39;;;;;;;6.57;3.90;;;13.00;1.00;;;;;;5036436;28;20025;-66
2023/05/20 04:39:06;;;;;;;5.93;3.25;;;;;;;;;;5036562;28;20048;-66
2023/05/20 04:41:32;;;;;;;4.35;3.10;;;15.10;99.90;;;;;;5036494;28;20034;-66
2023/05/20 04:43:59;;;;;;;5.00;3.13;;;15.70;99.90;;;;;;5035415;28;20025;-66
2023/05/20 04:46:25;;;;;;;5.80;3.08;;;16.10;1.00;;;;;;5035174;28;20036;-66
2023/05/20 04:48:51;;;;;;;3.90;3.15;;;16.80;99.90;;;;;;5036367;28;20529;-66
2023/05/20 04:51:16;;;;;;;4.05;3.15;;;17.30;1.00;;;;;;5034827;28;20029;-67
2023/05/20 04:53:43;;;;;;;6.55;3.25;;;16.30;1.00;;;;;;5036243;28;20087;-67
2023/05/20 04:56:10;;;;;;;8.90;3.50;;;16.40;99.90;;;;;;5036075;28;20053;-67
2023/05/20 04:58:35;;;;;;;6.05;3.67;;;16.60;1.00;;;;;;5035913;28;20025;-67
2023/05/20 05:01:02;;;;;;;4.50;3.65;;;16.30;93.60;;;;;;5034688;28;20025;-67
2023/05/20 05:03:27;;;;;;;6.22;3.60;;;16.20;99.90;;;;;;5036039;28;20025;-67
2023/05/20 05:05:57;;;;;;;4.32;3.25;;;16.00;99.90;;;;;;5034635;28;20116;-67
2023/05/20 05:08:22;;;;;;;4.38;3.80;;;15.90;99.90;;;;;;5035971;28;20033;-67
2023/05/20 05:10:48;;;;;;;7.78;3.30;;;15.10;40.00;;;;;;5035751;28;20096;-67
2023/05/20 05:13:13;;;;;;;6.47;4.30;;;14.50;25.50;;;;;;5035554;28;20034;-67
2023/05/20 05:15:39;;;;;;;4.28;3.60;;;14.40;99.90;;;;;;5035670;28;20037;-67
2023/05/20 05:18:05;;;;;;;7.20;3.72;;;;;;;;;;5035764;28;20029;-67
2023/05/20 05:20:31;;;;;;;9.32;4.05;;;;;;;;;;5035715;28;20032;-67
2023/05/20 05:22:57;;;;;;;7.50;4.30;;;;;;;;;;5035732;28;20417;-67
2023/05/20 05:25:23;;;;;;;5.40;4.10;;;;;;;;;;5035347;28;20036;-67
2023/05/20 05:27:49;;;;;;;5.72;3.80;;;;;;;;;;5035648;28;20052;-67
2023/05/20 05:30:15;;;;;;;7.03;3.80;;;;;;;;;;5035336;28;20487;-66
2023/05/20 05:32:41;;;;;;;8.15;3.88;;;;;;;;;;5033958;28;20073;-66
2023/05/20 05:35:07;;;;;;;4.53;3.22;;;;;;;;;;5035302;28;20447;-67
2023/05/20 05:37:33;;;;;;;5.72;3.58;;;;;;;;;;5035449;28;20033;-67
2023/05/20 05:39:59;;;;;;;3.90;3.42;;;;;;;;;;5035398;28;20467;-67
2023/05/20 05:42:25;;;;;;;8.15;3.47;;;;;;;;;;5035303;28;20029;-67
2023/05/20 05:44:51;;;;;;;5.72;3.88;;;;;;;;;;5035105;28;20039;-67
2023/05/20 05:47:17;;;;;;;7.65;3.78;;;;;;;;;;5035289;28;20421;-67
2023/05/20 05:49:42;;;;;;;6.60;4.05;;;;;;;;;;5035035;28;20391;-67
2023/05/20 05:52:08;;;;;;;5.80;3.42;;;19.20;1.00;;;;;;5034899;28;20033;-67
2023/05/20 05:54:34;;;;;;;5.20;3.35;;;19.70;1.00;;;;;;5035127;28;20049;-67
2023/05/20 05:56:59;;;;;;;4.35;3.40;;;20.20;1.00;;;;;;5035059;28;20030;-67
2023/05/20 05:59:25;;;;;;;7.57;4.10;;;20.40;99.90;;;;;;5035023;28;20029;-68
2023/05/20 06:01:50;;;;;;;4.43;3.88;;;19.40;99.90;;;;;;5034769;28;20475;-67
2023/05/20 06:04:16;;;;;;;6.90;4.38;;;18.00;99.90;;;;;;5034511;28;20463;-67
2023/05/20 06:06:42;;;;;;;5.72;4.10;;;17.00;27.00;;;;;;5034832;28;20048;-67
2023/05/20 06:09:07;;;;;;;6.05;3.90;;;16.70;99.90;;;;;;5034815;28;20029;-67
2023/05/20 06:11:33;;;;;;;5.20;4.05;;;;;;;;;;5034590;28;20025;-67
2023/05/20 06:13:59;;;;;;;6.43;4.63;;;;;;;;;;5035109;28;20021;-67
2023/05/20 06:16:25;;;;;;;8.55;4.82;;;;;;;;;;5034470;28;20034;-67
2023/05/20 06:18:52;;;;;;;9.60;5.00;;;;;;;;;;5034712;28;20026;-67
2023/05/20 06:21:18;;;;;;;8.60;5.38;;;;;;;;;;5034664;28;20433;-67
2023/05/20 06:23:44;;;;;;;8.52;4.78;;;;;;;;;;5033212;28;20022;-67
2023/05/20 06:26:10;;;;;;;7.15;4.85;;;;;;;;;;5034352;28;20056;-67
2023/05/20 06:28:36;;;;;;;10.23;5.30;;;;;;;;;;5034474;28;20017;-67
2023/05/20 06:31:02;;;;;;;5.40;4.90;;;;;;;;;;5034224;28;20017;-67
2023/05/20 06:33:28;;;;;;;9.38;5.50;;;;;;;;;;5034081;28;20060;-67
2023/05/20 06:35:55;;;;;;;8.52;5.53;;;;;;;;;;5033672;28;20072;-67
2023/05/20 06:38:21;;;;;;;7.95;5.40;;;;;;;;;;5033992;28;20018;-67
2023/05/20 06:40:48;;;;;;;9.50;5.68;;;;;;;;;;5034261;28;20393;-67
2023/05/20 06:43:16;;;;;;;7.90;6.00;;;;;;;;;;5034056;28;20031;-67
2023/05/20 06:45:42;;;;;;;9.52;5.93;;;;;;;;;;5033973;28;20047;-67
2023/05/20 06:48:08;;;;;;;9.38;5.85;;;;;;;;;;5033893;28;20052;-67
2023/05/20 06:50:34;;;;;;;9.48;5.88;;;;;;;;;;5034029;28;20029;-67
2023/05/20 06:53:00;;;;;;;11.15;6.60;;;;;;;;;;5033993;28;20032;-67
2023/05/20 06:55:26;;;;;;;8.50;5.97;;;;;;;;;;5033730;28;20096;-67
2023/05/20 06:57:52;;;;;;;9.00;6.05;;;;;;;;;;5033739;28;20454;-67
2023/05/20 07:00:18;;;;;;;9.82;6.40;;;;;;;;;;5033730;28;20056;-67
2023/05/20 07:02:45;;;;;;;10.43;6.60;;;;;;;;;;5033430;28;20033;-67
2023/05/20 07:05:11;;;;;;;10.05;7.05;;;;;;;;;;5033646;28;20049;-67
2023/05/20 07:07:37;;;;;;;10.35;7.15;;;;;;;;;;5033787;28;20147;-67
2023/05/20 07:10:04;;;;;;;8.75;6.68;;;;;;;;;;5033605;28;20032;-67
2023/05/20 07:12:30;;;;;;;8.88;6.20;;;;;;;;;;5033540;28;20159;-67
2023/05/20 07:14:56;;;;;;;10.63;7.18;;;;;;;;;;5033375;28;20021;-67
2023/05/20 07:17:23;;;;;;;14.18;7.78;;;;;;;;;;5033434;28;20029;-67
2023/05/20 07:19:49;;;;;;;10.50;7.57;;;;;;;;;;5032149;28;20399;-67
2023/05/20 07:22:15;;;;;;;11.55;7.78;;;;;;;;;;5033401;28;20021;-67
2023/05/20 07:24:41;;;;;;;10.48;6.97;;;;;;;;;;5033341;28;20040;-67
2023/05/20 07:27:07;;;;;;;10.57;6.97;;;;;;;;;;5033541;28;20025;-67
2023/05/20 07:29:34;;;;;;;10.80;7.18;;;;;;;;;;5033392;28;20534;-67
2023/05/20 07:32:00;;;;;;;13.10;7.65;;;;;;;;;;5033008;28;20470;-67
2023/05/20 07:34:26;;;;;;;10.40;7.07;;;;;;;;;;5033211;28;20026;-67
2023/05/20 07:36:52;;;;;;;13.98;8.65;;;;;;;;;;5033418;28;20029;-67
2023/05/20 07:39:18;;;;;;;10.57;7.45;;;;;;;;;;5033164;28;20372;-67
2023/05/20 07:41:44;;;;;;;9.88;7.00;;;;;;;;;;5033180;28;20479;-67
2023/05/20 07:44:11;;;;;;;11.18;7.97;;;;;;;;;;5033266;28;20029;-67
2023/05/20 07:46:38;;;;;;;12.65;8.05;;;;;;;;;;5033148;28;20029;-67
2023/05/20 07:49:04;;;;;;;11.60;8.32;;;;;;;;;;5036516;28;20021;-67
2023/05/20 07:51:30;;;;;;;12.95;8.85;;;;;;;;;;5037299;28;20029;-67
2023/05/20 07:53:56;;;;;;;13.65;7.78;;;;;;;;;;5037368;28;20022;-67
2023/05/20 07:56:22;;;;;;;11.15;7.60;;;;;;;;;;5037338;28;20025;-67
2023/05/20 07:58:52;;;;;;;10.93;6.65;;;;;;;;;;5037294;28;20013;-67
2023/05/20 08:01:18;;;;;;;10.60;6.60;;;;;;;;;;5037248;28;20017;-67
2023/05/20 08:03:44;;;;;;;9.75;6.65;;;;;;;;;;5037152;28;20036;-67
2023/05/20 08:06:10;;;;;;;10.82;6.50;;;;;;;;;;5037188;28;20096;-67
2023/05/20 08:08:36;;;;;;;10.57;6.60;;;;;;;;;;5036892;28;20017;-67
2023/05/20 08:11:03;;;;;;;11.32;6.43;;;;;;;;;;5037089;28;20025;-67
2023/05/20 08:13:29;;;;;;;9.32;6.82;;;;;;;;;;5036668;28;20029;-67
2023/05/20 08:15:55;;;;;;;10.13;6.72;;;;;;;;;;5036681;28;20423;-67
2023/05/20 08:18:21;;;;;;;12.55;6.40;;;;;;;;;;5036917;28;20383;-67
2023/05/20 08:20:47;;;;;;;8.60;6.20;;;;;;;;;;5036704;28;20042;-67
2023/05/20 08:23:13;;;;;;;12.15;6.18;;;;;;;;;;5036662;28;20030;-67
2023/05/20 08:25:39;;;;;;;8.73;6.07;;;;;;;;;;5036469;28;20067;-67
2023/05/20 08:28:06;;;;;;;10.13;5.90;;;;;;;;;;5036582;28;20057;-67
2023/05/20 08:30:32;;;;;;;11.15;6.03;;;;;;;;;;5036554;28;20029;-67
2023/05/20 08:32:58;;;;;;;8.80;5.93;;;;;;;;;;5036211;28;20049;-67
2023/05/20 08:35:24;;;;;;;10.93;6.28;;;;;;;;;;5036369;28;20072;-67
2023/05/20 08:37:52;;;;;;;9.18;6.53;;;;;;;;;;5035205;28;20616;-67
2023/05/20 08:40:19;;;;;;;10.88;6.03;;;;;;;;;;5036204;28;20036;-67
2023/05/20 08:42:45;;;;;;;11.98;6.32;;;;;;;;;;5036465;28;20160;-67
2023/05/20 08:45:12;;;;;;;12.95;6.47;;;;;;;;;;5036469;28;20056;-67
2023/05/20 08:47:42;;;;;;;10.57;6.50;;;;;;;;;;5035209;28;20033;-67
2023/05/20 08:50:08;;;;;;;9.48;6.60;;;;;;;;;;5034970;28;20041;-67
2023/05/20 08:52:35;;;;;;;10.15;6.57;;;;;;;;;;5036241;28;20488;-67
2023/05/20 08:55:01;;;;;;;11.52;6.82;;;;;;;;;;5036028;28;20033;-67
2023/05/20 08:57:28;;;;;;;9.18;6.93;;;;;;;;;;5035962;28;20021;-67
2023/05/20 08:59:56;;;;;;;6.97;6.20;;;;;;;;;;5035145;28;20029;-67
2023/05/20 09:02:22;;;;;;;11.40;7.30;;;;;;;;;;5036085;28;20551;-67
2023/05/20 09:04:48;;;;;;;9.93;6.50;;;;;;;;;;5036041;28;20052;-67
2023/05/20 09:07:13;;;;;;;9.35;5.95;;;;;;;;;;5035702;28;20029;-67
2023/05/20 09:09:40;;;;;;;9.07;6.30;;;;;;;;;;5035800;28;20056;-67
2023/05/20 09:12:06;;;;;;;9.68;7.13;;;;;;;;;;5035687;28;20032;-67
2023/05/20 09:14:32;;;;;;;8.20;6.57;;;;;;;;;;5035771;28;20506;-67
2023/05/20 09:16:58;;;;;;;11.05;6.63;;;;;;;;;;5035632;28;20124;-67
2023/05/20 09:19:24;;;;;;;11.57;6.80;;;;;;;;;;5035743;28;20030;-67
2023/05/20 09:21:54;;;;;;;11.38;6.40;;;;;;;;;;5035778;28;20025;-67
2023/05/20 09:24:24;;;;;;;9.43;5.90;;;;;;;;;;5035681;28;20033;-67
2023/05/20 09:26:50;;;;;;;10.98;6.00;;;;;;;;;;5035660;28;20430;-67
2023/05/20 09:29:16;;;;;;;8.85;6.63;;;;;;;;;;5035378;28;20029;-67
2023/05/20 09:31:42;;;;;;;10.10;6.50;;;;;;;;;;5035139;28;20053;-67
2023/05/20 09:34:08;;;;;;;10.65;5.95;;;;;;;;;;5035322;28;20064;-67
2023/05/20 09:36:34;;;;;;;12.85;6.50;;;;;;;;;;5035459;28;20021;-67
2023/05/20 09:39:02;;;;;;;11.80;6.95;;;;;;;;;;5035448;28;20021;-67
2023/05/20 09:41:32;;;;;;;7.55;6.68;;;;;;;;;;5035024;28;20029;-67
2023/05/20 09:43:59;;;;;;;7.82;6.47;;;;;;;;;;5035100;28;20399;-67
2023/05/20 09:46:26;;;;;;;9.82;6.25;;;;;;;;;;5034907;28;20029;-67
2023/05/20 09:48:53;;;;;;;10.10;6.93;;;;;;;;;;5033673;28;20025;-67
2023/05/20 09:51:19;;;;;;;7.53;6.47;;;;;;;;;;5034724;28;20079;-67
2023/05/20 09:53:45;;;;;;;7.03;6.30;;;;;;;;;;5035182;28;20471;-67
2023/05/20 09:56:11;;;;;;;6.97;5.70;;;;;;;;;;5034890;28;20087;-67
2023/05/20 09:58:38;;;;;;;7.80;6.45;;;;;;;;;;5034885;28;20027;-67
2023/05/20 10:01:06;;;;;;;10.98;6.80;;;;;;;;;;5033737;28;20478;-67
2023/05/20 10:03:32;;;;;;;8.95;5.65;;;;;;;;;;5034845;28;20025;-67
2023/05/20 10:06:19;;;;;;;11.13;5.82;;;;;;;;;;5033716;28;20029;-67
2023/05/20 10:11:48;;;;;;;7.63;6.63;;;;;;;;;;5111226;27;20434;-67
2023/05/20 10:14:34;;;;;;;8.77;5.72;;;;;;;;;;5111275;28;20042;-67
2023/05/20 10:17:12;;;;;;;5.97;5.38;;;;;;;;;;5110963;28;20024;-67
2023/05/20 10:19:38;;;;;;;7.03;5.22;;;;;;;;;;5111110;28;20078;-67
2023/05/20 10:22:05;;;;;;;7.45;5.70;;;;;;;;;;5111241;28;20445;-67
2023/05/20 10:24:33;;;;;;;5.57;4.88;;;;;;;;;;5111094;28;20015;-67
2023/05/20 10:27:02;;;;;;;10.30;5.72;;;21.10;96.20;;;;;;5110756;28;20114;-67
2023/05/20 10:29:28;;;;;;;6.63;5.75;;;21.10;57.40;;;;;;5109788;28;20489;-67
2023/05/20 10:31:53;;;;;;;5.97;5.22;;;20.70;1.00;;;;;;5110893;28;20050;-67
2023/05/20 10:34:21;;;;;;;6.40;5.22;;;20.70;1.00;;;;;;5109492;28;20062;-67
2023/05/20 10:39:33;;;;;;;8.32;4.78;;;21.10;1.00;;;;;;5090847;27;20801;-67
2023/05/20 10:42:08;;;;;;;5.85;4.63;;;20.50;99.90;;;;;;5090689;28;20462;-67
2023/05/20 10:44:42;;;;;;;5.55;5.05;;;20.80;99.90;;;;;;5089645;28;20043;-67
2023/05/20 10:47:08;;;;;;;7.15;5.68;;;20.60;1.00;;;;;;5089380;28;20021;-67
2023/05/20 10:49:35;;;;;;;7.32;5.70;;;20.20;99.90;;;;;;5090647;28;20528;-67
2023/05/20 10:52:03;;;;;;;8.60;5.88;;;;;;;;;;5089650;28;20093;-67
2023/05/20 10:54:34;;;;;;;8.10;5.90;;;;;;;;;;5090502;28;20024;-67
2023/05/20 10:57:06;;;;;;;6.97;5.47;;;;;;;;;;5090584;28;20024;-67
2023/05/20 10:59:32;;;;;;;10.52;5.68;;;;;;;;;;5090622;28;20036;-67
2023/05/20 11:01:58;;;;;;;8.07;5.80;;;;;;;;;;5090365;28;20028;-67
2023/05/20 11:04:24;;;;;;;6.68;5.80;;;;;;;;;;5090333;28;20064;-67
2023/05/20 11:06:52;;;;;;;6.43;5.70;;;;;;;;;;5090246;28;20046;-67
2023/05/20 11:09:18;;;;;;;8.55;5.88;;;;;;;;;;5090435;28;20493;-67
2023/05/20 11:11:44;;;;;;;6.38;5.78;;;;;;;;;;5090168;28;20043;-67
2023/05/20 11:14:13;;;;;;;7.72;5.93;;;;;;;;;;5090370;28;20461;-67
2023/05/20 11:16:39;;;;;;;6.10;5.50;;;;;;;;;;5090132;28;20091;-67
2023/05/20 11:19:07;;;;;;;9.20;5.95;;;;;;;;;;5090123;28;20118;-67
2023/05/20 11:21:33;;;;;;;7.95;5.72;;;;;;;;;;5090195;28;20028;-67
2023/05/20 11:23:59;;;;;;;7.72;5.30;;;;;;;;;;5089712;28;20047;-67
2023/05/20 11:26:25;;;;;;;7.53;5.15;;;;;;;;;;5089815;28;20506;-67
2023/05/20 11:28:52;;;;;;;6.93;5.45;;;;;;;;;;5089951;28;20481;-67
2023/05/20 11:31:18;;;;;;;7.63;5.43;;;;;;;;;;5089988;28;20036;-67
2023/05/20 11:33:44;;;;;;;6.38;5.65;;;;;;;;;;5089969;28;20035;-67
2023/05/20 11:36:12;;;;;;;6.35;5.50;;;;;;;;;;5089789;28;20032;-67
2023/05/20 11:38:40;;;;;;;6.45;5.00;;;;;;;;;;5089448;28;20048;-67
2023/05/20 11:41:06;;;;;;;7.88;4.90;;;;;;;;;;5088569;28;20037;-67
2023/05/20 11:43:33;;;;;;;7.72;4.78;;;;;;;;;;5089608;28;20367;-67
2023/05/20 11:45:59;;;;;;;7.25;4.47;;;;;;;;;;5089786;28;20070;-67
2023/05/20 11:48:25;;;;;;;6.32;4.38;;;;;;;;;;5089514;28;20028;-67
2023/05/20 11:50:53;;;;;;;6.05;4.40;;;;;;;;;;5074917;28;20442;-67
2023/05/20 11:53:19;;;;;;;6.07;4.20;;;;;;;;;;5076094;28;20036;-67
2023/05/20 11:55:48;;;;;;;6.55;4.22;;;;;;;;;;5074758;28;20028;-67
2023/05/20 11:58:16;;;;;;;4.70;4.30;;;;;;;;;;5074676;28;20028;-67
2023/05/20 12:00:42;;;;;;;8.55;4.90;;;;;;;;;;5075871;28;20100;-67
2023/05/20 12:03:08;;;;;;;5.93;4.78;;;;;;;;;;5075832;28;20017;-67
2023/05/20 12:05:34;;;;;;;6.47;4.50;;;;;;;;;;5075794;28;20025;-67
2023/05/20 12:08:00;;;;;;;5.90;4.57;;;;;;;;;;5075836;28;20056;-67
2023/05/20 12:10:26;;;;;;;5.07;4.13;;;;;;;;;;5075635;28;20436;-67
2023/05/20 12:12:52;;;;;;;6.13;4.68;;;;;;;;;;5075777;28;20491;-67
2023/05/20 12:15:18;;;;;;;5.35;3.95;;;;;;;;;;5075566;28;20078;-67
2023/05/20 12:17:46;;;;;;;5.38;4.60;;;;;;;;;;5075471;28;20047;-67
2023/05/20 12:20:14;;;;;;;5.00;4.53;;;;;;;;;;5075472;28;20017;-67
2023/05/20 12:22:40;;;;;;;5.20;4.70;;;;;;;;;;5075480;28;20025;-67
2023/05/20 12:25:06;;;;;;;5.80;5.30;;;;;;;;;;5075432;28;20452;-67
2023/05/20 12:27:32;;;;;;;6.45;4.85;;;;;;;;;;5075265;28;20078;-67
2023/05/20 12:29:58;;;;;;;5.68;4.78;;;;;;;;;;5075227;28;20055;-67
2023/05/20 12:32:24;;;;;;;4.97;4.43;;;;;;;;;;5075170;28;20089;-67
2023/05/20 12:34:50;;;;;;;4.90;4.43;;;;;;;;;;5075428;28;20024;-67
2023/05/20 12:37:16;;;;;;;4.65;4.20;;;;;;;;;;5074895;28;20028;-67
2023/05/20 12:39:42;;;;;;;5.53;4.47;;;;;;;;;;5074975;28;20031;-67
2023/05/20 12:42:08;;;;;;;6.22;4.30;;;;;;;;;;5075088;28;20024;-67
2023/05/20 12:44:34;;;;;;;6.30;5.20;;;;;;;;;;5075089;28;20389;-67
2023/05/20 12:47:00;;;;;;;8.10;4.40;;;;;;;;;;5074909;28;20078;-67
2023/05/20 12:49:26;;;;;;;8.10;5.07;;;;;;;;;;5075073;28;20040;-67
2023/05/20 12:51:52;;;;;;;6.53;4.88;;;;;;;;;;5074804;28;20039;-67
2023/05/20 12:54:18;;;;;;;6.45;4.72;;;;;;;;;;5074806;28;20086;-67
2023/05/20 12:56:46;;;;;;;7.00;5.60;;;;;;;;;;5074548;28;20032;-67
2023/05/20 12:59:12;;;;;;;8.15;5.50;;;;;;;;;;5074662;28;20086;-67
2023/05/20 13:01:38;;;;;;;6.82;5.18;;;;;;;;;;5073739;28;20393;-67
2023/05/20 13:04:04;;;;;;;9.18;5.22;;;;;;;;;;5074634;28;20023;-67
2023/05/20 13:06:30;;;;;;;5.95;5.05;;;;;;;;;;5074734;28;20032;-67
2023/05/20 13:08:56;;;;;;;5.65;5.13;;;;;;;;;;5074437;28;20033;-67
2023/05/20 13:11:23;;;;;;;5.80;5.18;;;;;;;;;;5074400;28;20033;-67
2023/05/20 13:13:49;;;;;;;6.53;5.82;;;;;;;;;;5074572;28;20028;-67
2023/05/20 13:16:16;;;;;;;6.25;5.65;;;;;;;;;;5074349;28;20035;-67
2023/05/20 13:18:42;;;;;;;8.57;5.25;;;;;;;;;;5074466;28;20025;-67
2023/05/20 13:21:08;;;;;;;6.22;5.63;;;;;;;;;;5074229;28;20035;-67
2023/05/20 13:23:35;;;;;;;7.35;5.32;;;;;;;;;;5074270;28;20033;-67
2023/05/20 13:26:01;;;;;;;8.00;6.47;;;;;;;;;;5074105;28;20017;-67
2023/05/20 13:28:27;;;;;;;8.82;5.30;;;;;;;;;;5074213;28;20086;-67
2023/05/20 13:30:53;;;;;;;6.50;5.28;;;;;;;;;;5074045;28;20490;-67
2023/05/20 13:33:19;;;;;;;8.40;6.00;;;;;;;;;;5074006;28;20032;-67
2023/05/20 13:35:46;;;;;;;7.65;6.15;;;;;;;;;;5073979;28;20515;-67
2023/05/20 13:38:12;;;;;;;8.50;5.65;;;;;;;;;;5073659;28;20417;-67
2023/05/20 13:40:38;;;;;;;8.13;6.30;;;;;;;;;;5074093;28;20027;-67
2023/05/20 13:43:04;;;;;;;8.57;6.13;;;;;;;;;;5073880;28;20370;-66
2023/05/20 13:45:30;;;;;;;8.20;5.88;;;;;;;;;;5073312;28;20024;-67
2023/05/20 13:47:56;;;;;;;9.40;6.32;;;;;;;;;;5073759;28;20025;-67
2023/05/20 13:50:22;;;;;;;7.55;6.18;;;;;;;;;;5073645;28;20034;-66
2023/05/20 13:52:48;;;;;;;8.27;6.18;;;;;;;;;;5073802;28;20047;-66
2023/05/20 13:55:14;;;;;;;6.68;6.00;;;;;;;;;;5073714;28;20454;-67
2023/05/20 13:57:40;;;;;;;7.82;6.50;;;;;;;;;;5073557;28;20035;-67